Time;durP1;ratioP1;P1;durP2;ratioP2;P2;SDS_P1;SDS_P2;PMS_P1;PMS_P2;Temp;Humidity;BMP_temperature;BMP_pressure;BME280_temperature;BME280_humidity;BME280_pressure;Samples;Min_cycle;Max_cycle;Signal;HPM_P1;HPM_P2
2023/04/03 00:01:14;;;;;;;2.30;0.60;;;7.70;61.70;;;;;;5018734;28;20030;-68
2023/04/03 00:03:43;;;;;;;0.35;0.30;;;7.60;61.70;;;;;;5008207;28;20029;-66
2023/04/03 00:06:11;;;;;;;1.13;0.68;;;7.60;61.80;;;;;;5025936;28;20037;-69
2023/04/03 00:08:37;;;;;;;1.70;1.00;;;7.60;61.80;;;;;;5010912;28;20030;-68
2023/04/03 00:11:05;;;;;;;1.77;0.60;;;7.60;61.80;;;;;;5036981;28;20041;-69
2023/04/03 00:13:31;;;;;;;0.65;0.45;;;7.60;61.80;;;;;;5037797;28;20041;-69
2023/04/03 00:15:57;;;;;;;0.88;0.75;;;7.60;61.90;;;;;;5042348;28;20108;-69
2023/04/03 00:18:23;;;;;;;0.98;0.73;;;7.60;61.80;;;;;;5046016;28;20096;-68
2023/04/03 00:20:49;;;;;;;1.35;0.40;;;7.50;61.90;;;;;;5034362;28;20068;-69
2023/04/03 00:23:14;;;;;;;0.65;0.63;;;7.50;61.90;;;;;;5038657;28;20417;-69
2023/04/03 00:25:40;;;;;;;0.98;0.50;;;7.50;61.90;;;;;;5028415;28;20056;-69
2023/04/03 00:28:06;;;;;;;1.10;0.47;;;7.50;61.90;;;;;;5015276;28;20043;-69
2023/04/03 00:30:33;;;;;;;0.50;0.47;;;7.50;61.90;;;;;;5028533;28;20074;-69
2023/04/03 00:33:00;;;;;;;0.70;0.30;;;7.50;62.00;;;;;;5046893;28;20041;-68
2023/04/03 00:35:26;;;;;;;0.68;0.43;;;7.50;62.00;;;;;;5041008;28;20376;-68
2023/04/03 00:37:53;;;;;;;0.60;0.55;;;7.40;62.10;;;;;;5041387;28;20037;-67
2023/04/03 00:40:20;;;;;;;0.68;0.60;;;7.40;62.20;;;;;;5022979;28;20551;-69
2023/04/03 00:42:48;;;;;;;0.30;0.30;;;7.40;62.30;;;;;;5011829;28;20029;-67
2023/04/03 00:45:24;;;;;;;1.05;0.50;;;7.30;62.40;;;;;;5040051;28;20037;-68
2023/04/03 00:47:51;;;;;;;0.65;0.43;;;7.30;62.40;;;;;;5020965;28;20124;-67
2023/04/03 00:50:17;;;;;;;0.38;0.38;;;7.30;62.50;;;;;;5045932;28;20036;-68
2023/04/03 00:52:46;;;;;;;0.43;0.35;;;7.30;62.50;;;;;;5040818;28;20028;-69
2023/04/03 00:55:14;;;;;;;1.45;0.60;;;7.30;62.40;;;;;;5017802;28;20030;-68
2023/04/03 00:57:41;;;;;;;0.50;0.45;;;7.30;62.40;;;;;;5030931;28;20022;-68
2023/04/03 01:00:10;;;;;;;0.88;0.30;;;7.30;62.40;;;;;;5035280;28;20039;-70
2023/04/03 01:02:36;;;;;;;0.32;0.30;;;7.30;62.60;;;;;;5037369;28;20017;-68
2023/04/03 01:05:02;;;;;;;1.13;0.85;;;7.20;62.70;;;;;;5035891;28;20044;-69
2023/04/03 01:07:30;;;;;;;1.67;0.35;;;7.20;62.80;;;;;;5026513;28;20105;-68
2023/04/03 01:09:59;;;;;;;0.68;0.60;;;7.20;62.90;;;;;;5026384;28;20040;-68
2023/04/03 01:12:30;;;;;;;1.48;1.00;;;7.20;63.00;;;;;;5025249;28;20033;-68
2023/04/03 01:14:59;;;;;;;0.82;0.57;;;7.20;62.90;;;;;;5027050;28;20028;-69
2023/04/03 01:17:32;;;;;;;0.40;0.40;;;7.20;63.00;;;;;;5035503;28;20022;-69
2023/04/03 01:20:35;;;;;;;0.52;0.52;;;7.20;63.10;;;;;;5027612;28;20022;-69
2023/04/03 01:23:10;;;;;;;0.60;0.60;;;7.20;63.10;;;;;;5036716;28;20037;-67
2023/04/03 01:25:48;;;;;;;0.43;0.43;;;7.10;63.30;;;;;;5037584;28;20439;-68
2023/04/03 01:28:23;;;;;;;1.02;0.55;;;7.10;64.00;;;;;;5020133;28;20068;-69
2023/04/03 01:31:32;;;;;;;0.45;0.45;;;7.10;64.20;;;;;;5041517;28;20038;-69
2023/04/03 01:33:58;;;;;;;0.55;0.47;;;7.10;63.60;;;;;;5005983;28;20536;-69
2023/04/03 01:36:27;;;;;;;1.25;0.50;;;7.00;63.80;;;;;;5043289;28;20033;-68
2023/04/03 01:38:54;;;;;;;1.20;0.68;;;7.00;63.80;;;;;;5044028;28;20444;-69
2023/04/03 01:41:20;;;;;;;0.52;0.43;;;7.00;63.90;;;;;;5041403;28;20029;-69
2023/04/03 01:43:47;;;;;;;0.95;0.60;;;7.00;63.90;;;;;;5020860;28;20092;-68
2023/04/03 01:46:13;;;;;;;2.42;1.17;;;7.00;64.00;;;;;;5042585;28;20026;-68
2023/04/03 01:48:39;;;;;;;0.38;0.35;;;7.00;64.00;;;;;;5012555;28;20037;-69
2023/04/03 01:51:05;;;;;;;0.57;0.55;;;6.90;64.10;;;;;;5037963;28;20028;-69
2023/04/03 01:53:31;;;;;;;0.77;0.68;;;6.90;64.20;;;;;;5014946;28;20473;-68
2023/04/03 01:55:57;;;;;;;0.45;0.45;;;6.90;64.30;;;;;;5017460;28;20105;-68
2023/04/03 01:58:22;;;;;;;0.60;0.60;;;6.90;64.30;;;;;;5033488;28;20040;-69
2023/04/03 02:00:48;;;;;;;0.38;0.38;;;6.80;64.50;;;;;;5043230;28;20032;-68
2023/04/03 02:03:14;;;;;;;0.63;0.40;;;6.80;64.60;;;;;;5020643;28;20119;-69
2023/04/03 02:05:40;;;;;;;1.65;0.30;;;6.80;64.70;;;;;;5015961;28;20334;-68
2023/04/03 02:08:06;;;;;;;0.55;0.38;;;6.80;64.90;;;;;;5022284;28;20040;-70
2023/04/03 02:10:32;;;;;;;1.25;0.70;;;6.80;65.00;;;;;;5045589;28;20064;-68
2023/04/03 02:12:58;;;;;;;0.93;0.47;;;6.80;64.90;;;;;;5035801;28;20052;-69
2023/04/03 02:15:23;;;;;;;0.68;0.43;;;6.70;64.90;;;;;;5017745;28;20026;-69
2023/04/03 02:17:49;;;;;;;8.10;0.88;;;6.70;65.60;;;;;;5026199;28;20032;-69
2023/04/03 02:20:15;;;;;;;0.98;0.77;;;6.70;65.20;;;;;;5047820;28;20108;-68
2023/04/03 02:22:40;;;;;;;0.57;0.32;;;6.70;65.10;;;;;;5010707;28;20029;-68
2023/04/03 02:25:06;;;;;;;3.80;0.80;;;6.70;65.20;;;;;;5007003;28;20400;-68
2023/04/03 02:27:32;;;;;;;0.55;0.50;;;6.70;65.20;;;;;;5040734;28;20477;-69
2023/04/03 02:29:58;;;;;;;0.70;0.70;;;6.70;65.40;;;;;;5040488;28;20025;-68
2023/04/03 02:32:23;;;;;;;0.95;0.50;;;6.60;65.40;;;;;;5049131;28;20033;-68
2023/04/03 02:34:49;;;;;;;1.33;0.60;;;6.60;65.70;;;;;;5025966;28;20029;-68
2023/04/03 02:37:15;;;;;;;1.38;0.55;;;6.50;65.70;;;;;;5045016;28;20100;-68
2023/04/03 02:39:41;;;;;;;1.88;0.93;;;6.50;65.90;;;;;;5026149;28;20064;-69
2023/04/03 02:42:07;;;;;;;0.63;0.55;;;6.50;66.00;;;;;;5014820;28;20380;-69
2023/04/03 02:44:32;;;;;;;1.67;0.70;;;6.50;66.00;;;;;;5027307;28;20037;-69
2023/04/03 02:46:58;;;;;;;0.50;0.50;;;6.50;66.10;;;;;;5036920;28;20539;-69
2023/04/03 02:49:24;;;;;;;2.47;0.70;;;6.40;66.10;;;;;;5035602;28;20030;-69
2023/04/03 02:51:51;;;;;;;1.17;0.73;;;6.40;66.20;;;;;;5013508;28;20013;-68
2023/04/03 02:54:16;;;;;;;0.82;0.38;;;6.40;66.20;;;;;;5023241;28;20484;-68
2023/04/03 02:56:42;;;;;;;0.85;0.57;;;6.40;66.20;;;;;;5037767;28;20037;-69
2023/04/03 02:59:08;;;;;;;0.63;0.40;;;6.40;66.30;;;;;;5041852;28;20358;-69
2023/04/03 03:01:34;;;;;;;0.50;0.45;;;6.40;66.40;;;;;;5026768;28;20068;-69
2023/04/03 03:04:00;;;;;;;0.82;0.40;;;6.40;66.50;;;;;;5045026;28;20032;-69
2023/04/03 03:06:26;;;;;;;1.05;0.60;;;6.40;66.70;;;;;;5018654;28;20029;-68
2023/04/03 03:08:52;;;;;;;0.88;0.60;;;6.30;66.60;;;;;;5044973;28;20107;-68
2023/04/03 03:11:17;;;;;;;0.80;0.80;;;6.30;66.60;;;;;;5024608;28;20111;-68
2023/04/03 03:13:43;;;;;;;0.98;0.70;;;6.30;66.60;;;;;;5034553;28;20030;-69
2023/04/03 03:16:09;;;;;;;1.00;0.47;;;6.30;66.70;;;;;;5049957;28;20033;-68
2023/04/03 03:18:35;;;;;;;5.10;0.50;;;6.20;66.70;;;;;;5047764;28;20037;-69
2023/04/03 03:21:02;;;;;;;0.55;0.55;;;6.20;66.80;;;;;;5039701;28;20029;-69
2023/04/03 03:23:29;;;;;;;1.05;0.82;;;6.20;67.00;;;;;;5046484;28;20037;-68
2023/04/03 03:25:57;;;;;;;0.30;0.30;;;6.20;67.00;;;;;;5014170;28;20034;-69
2023/04/03 03:28:23;;;;;;;1.70;0.90;;;6.10;67.00;;;;;;5029536;28;20041;-69
2023/04/03 03:30:49;;;;;;;2.25;0.73;;;6.10;67.30;;;;;;5023095;28;20143;-69
2023/04/03 03:33:14;;;;;;;1.55;0.88;;;6.00;67.40;;;;;;5024690;28;20197;-69
2023/04/03 03:35:40;;;;;;;1.55;0.70;;;6.00;67.50;;;;;;5012480;28;20021;-68
2023/04/03 03:38:13;;;;;;;0.32;0.30;;;6.00;67.50;;;;;;5025276;28;20021;-69
2023/04/03 03:40:39;;;;;;;1.35;0.85;;;6.00;67.60;;;;;;5021311;28;20404;-68
2023/04/03 03:43:05;;;;;;;0.73;0.47;;;6.00;67.60;;;;;;5040537;28;20040;-69
2023/04/03 03:45:31;;;;;;;3.10;0.80;;;6.00;67.70;;;;;;5026940;28;20033;-69
2023/04/03 03:47:56;;;;;;;1.67;0.70;;;5.90;67.60;;;;;;5047527;28;20028;-69
2023/04/03 03:50:22;;;;;;;0.90;0.70;;;5.90;67.60;;;;;;5046679;28;20029;-69
2023/04/03 03:52:48;;;;;;;0.43;0.43;;;5.90;67.60;;;;;;5025889;28;20100;-68
2023/04/03 03:55:14;;;;;;;2.05;0.60;;;5.90;67.70;;;;;;5040973;28;20025;-69
2023/04/03 03:57:40;;;;;;;3.08;0.90;;;5.90;67.70;;;;;;5040164;28;20021;-69
2023/04/03 04:00:07;;;;;;;1.75;0.77;;;5.90;67.70;;;;;;5042361;28;20034;-68
2023/04/03 04:02:32;;;;;;;0.73;0.68;;;5.80;67.70;;;;;;5038679;28;20296;-68
2023/04/03 04:04:58;;;;;;;0.80;0.60;;;5.80;67.80;;;;;;5032535;28;20025;-68
2023/04/03 04:07:24;;;;;;;0.73;0.73;;;5.80;67.90;;;;;;5043174;28;20465;-69
2023/04/03 04:09:49;;;;;;;0.70;0.70;;;5.80;67.90;;;;;;5046677;28;20032;-69
2023/04/03 04:12:20;;;;;;;1.90;0.50;;;5.70;68.10;;;;;;5042231;28;20052;-69
2023/04/03 04:14:46;;;;;;;3.13;1.02;;;5.70;68.00;;;;;;5017688;28;20416;-68
2023/04/03 04:17:15;;;;;;;0.55;0.55;;;5.70;68.10;;;;;;5039420;28;20025;-69
2023/04/03 04:19:47;;;;;;;2.33;1.00;;;5.70;68.20;;;;;;5022099;28;20095;-69
2023/04/03 04:22:14;;;;;;;2.80;0.75;;;5.60;68.20;;;;;;4992265;28;20447;-70
2023/04/03 04:24:40;;;;;;;3.80;0.68;;;5.60;68.30;;;;;;5007863;28;20029;-68
2023/04/03 04:27:06;;;;;;;0.68;0.40;;;5.60;68.30;;;;;;5039837;28;20034;-69
2023/04/03 04:29:35;;;;;;;0.82;0.45;;;5.50;68.40;;;;;;5025329;28;20492;-68
2023/04/03 04:32:02;;;;;;;0.75;0.50;;;5.50;68.40;;;;;;5035321;28;20060;-69
2023/04/03 04:34:33;;;;;;;0.55;0.55;;;5.50;68.50;;;;;;5039453;28;20021;-68
2023/04/03 04:36:58;;;;;;;1.20;0.75;;;5.50;68.60;;;;;;5004468;28;20037;-68
2023/04/03 04:39:24;;;;;;;0.88;0.60;;;5.50;68.50;;;;;;5036436;28;20531;-70
2023/04/03 04:41:50;;;;;;;1.45;0.95;;;5.40;68.60;;;;;;5042280;28;20064;-69
2023/04/03 04:44:15;;;;;;;2.28;1.02;;;5.40;68.60;;;;;;5035297;28;20040;-69
2023/04/03 04:46:41;;;;;;;4.60;1.00;;;5.40;68.70;;;;;;5043046;28;20396;-69
2023/04/03 04:49:07;;;;;;;2.00;0.95;;;5.30;68.80;;;;;;5041002;28;20652;-69
2023/04/03 04:51:32;;;;;;;2.42;1.48;;;5.30;68.90;;;;;;5041124;28;20033;-68
2023/04/03 04:53:58;;;;;;;3.65;0.50;;;5.30;68.90;;;;;;5024995;28;20029;-69
2023/04/03 04:56:25;;;;;;;8.60;0.75;;;5.30;68.90;;;;;;5020883;28;20499;-68
2023/04/03 04:58:50;;;;;;;1.10;0.93;;;5.20;68.90;;;;;;5045632;28;20050;-69
2023/04/03 05:01:16;;;;;;;2.30;1.15;;;5.20;68.90;;;;;;5021829;28;20124;-69
2023/04/03 05:03:42;;;;;;;2.05;0.60;;;5.20;69.00;;;;;;5036619;28;20101;-69
2023/04/03 05:06:08;;;;;;;0.85;0.50;;;5.20;69.60;;;;;;5026886;28;20029;-69
2023/04/03 05:08:34;;;;;;;2.08;0.80;;;5.20;68.90;;;;;;5020004;28;20128;-68
2023/04/03 05:10:59;;;;;;;1.10;0.63;;;5.20;68.90;;;;;;5025730;28;20096;-70
2023/04/03 05:13:25;;;;;;;5.13;1.05;;;5.20;68.80;;;;;;5045363;28;20102;-68
2023/04/03 05:15:51;;;;;;;1.10;0.55;;;5.20;68.70;;;;;;5040336;28;20033;-70
2023/04/03 05:18:16;;;;;;;1.30;0.95;;;5.20;68.80;;;;;;5009130;28;20116;-68
2023/04/03 05:20:43;;;;;;;5.15;1.02;;;5.20;68.80;;;;;;5040031;28;20040;-69
2023/04/03 05:23:10;;;;;;;3.40;1.23;;;5.20;68.90;;;;;;5021034;28;20044;-69
2023/04/03 05:25:38;;;;;;;1.55;0.63;;;5.20;68.90;;;;;;5044777;28;20137;-69
2023/04/03 05:28:04;;;;;;;0.50;0.50;;;5.10;68.70;;;;;;5027272;28;20545;-69
2023/04/03 05:30:29;;;;;;;1.05;0.80;;;5.10;68.80;;;;;;5027995;28;20057;-68
2023/04/03 05:32:55;;;;;;;2.05;1.05;;;5.10;68.80;;;;;;5047361;28;20107;-68
2023/04/03 05:35:21;;;;;;;0.40;0.40;;;5.10;68.80;;;;;;5021654;28;20033;-69
2023/04/03 05:37:47;;;;;;;0.40;0.40;;;5.10;68.80;;;;;;5020815;28;20032;-68
2023/04/03 05:40:12;;;;;;;6.57;0.93;;;5.10;68.80;;;;;;5043967;28;20114;-68
2023/04/03 05:42:38;;;;;;;1.50;1.05;;;5.10;68.80;;;;;;5039389;28;20037;-69
2023/04/03 05:45:04;;;;;;;0.98;0.82;;;5.10;68.80;;;;;;5037181;28;20029;-68
2023/04/03 05:47:30;;;;;;;4.05;0.75;;;5.10;68.70;;;;;;5012457;28;20037;-69
2023/04/03 05:49:56;;;;;;;0.55;0.38;;;5.20;68.60;;;;;;5044151;28;20033;-68
2023/04/03 05:52:35;;;;;;;0.73;0.73;;;5.20;68.60;;;;;;4999971;28;20391;-68
2023/04/03 05:55:01;;;;;;;1.65;0.65;;;5.20;68.50;;;;;;5048152;28;20095;-68
2023/04/03 05:57:26;;;;;;;1.30;0.85;;;5.20;68.70;;;;;;5023846;28;20041;-69
2023/04/03 05:59:52;;;;;;;0.75;0.75;;;5.20;68.60;;;;;;5040717;28;20067;-69
2023/04/03 06:02:20;;;;;;;5.20;0.80;;;5.20;68.70;;;;;;5044792;28;20112;-69
2023/04/03 06:04:47;;;;;;;0.40;0.40;;;5.20;68.70;;;;;;5040480;28;20018;-69
2023/04/03 06:07:22;;;;;;;1.75;0.77;;;5.20;68.60;;;;;;5037114;28;20043;-68
2023/04/03 06:09:49;;;;;;;2.67;0.88;;;5.30;68.70;;;;;;5042903;28;20037;-69
2023/04/03 06:12:15;;;;;;;0.60;0.50;;;5.30;68.60;;;;;;5041880;28;20046;-69
2023/04/03 06:14:41;;;;;;;1.30;0.82;;;5.40;68.50;;;;;;5041529;28;20037;-69
2023/04/03 06:17:08;;;;;;;1.83;0.57;;;5.40;68.40;;;;;;5050224;28;20441;-69
2023/04/03 06:19:33;;;;;;;0.73;0.60;;;5.40;68.30;;;;;;5045684;28;20040;-69
2023/04/03 06:22:00;;;;;;;2.22;0.70;;;5.40;68.40;;;;;;5021260;28;20026;-69
2023/04/03 06:24:26;;;;;;;1.17;0.50;;;5.40;68.20;;;;;;5041752;28;20021;-69
2023/04/03 06:26:52;;;;;;;1.08;0.93;;;5.50;68.20;;;;;;5019949;28;20028;-69
2023/04/03 06:29:19;;;;;;;0.57;0.57;;;5.50;68.10;;;;;;5048745;28;20524;-68
2023/04/03 06:31:45;;;;;;;2.65;0.98;;;5.60;68.10;;;;;;5024034;28;20094;-68
2023/04/03 06:34:11;;;;;;;0.77;0.60;;;5.60;68.00;;;;;;5036573;28;20025;-69
2023/04/03 06:36:38;;;;;;;0.52;0.52;;;5.60;68.00;;;;;;5046593;28;20411;-69
2023/04/03 06:39:04;;;;;;;1.58;1.13;;;5.60;68.00;;;;;;5024453;28;20569;-69
2023/04/03 06:41:31;;;;;;;0.77;0.70;;;5.70;67.80;;;;;;5043483;28;20100;-69
2023/04/03 06:43:57;;;;;;;2.28;1.10;;;5.80;67.70;;;;;;5045739;28;20041;-69
2023/04/03 06:46:25;;;;;;;1.83;1.08;;;5.80;67.60;;;;;;5042588;28;20025;-69
2023/04/03 06:48:51;;;;;;;0.60;0.55;;;5.80;67.50;;;;;;5042221;28;20103;-69
2023/04/03 06:51:28;;;;;;;0.70;0.60;;;5.90;67.40;;;;;;5044512;28;20056;-68
2023/04/03 06:53:56;;;;;;;1.15;0.55;;;5.90;67.30;;;;;;5039990;28;20055;-69
2023/04/03 06:56:22;;;;;;;2.03;1.00;;;6.00;67.20;;;;;;5026066;28;20716;-69
2023/04/03 06:58:48;;;;;;;1.20;0.57;;;6.00;66.90;;;;;;5032202;28;20021;-68
2023/04/03 07:01:16;;;;;;;1.20;0.75;;;6.10;66.80;;;;;;5026174;28;20032;-69
2023/04/03 07:03:42;;;;;;;2.90;1.05;;;6.20;66.50;;;;;;5028791;28;20369;-69
2023/04/03 07:06:11;;;;;;;1.13;0.60;;;6.20;66.50;;;;;;5048058;28;20021;-68
2023/04/03 07:08:37;;;;;;;2.33;0.77;;;6.30;66.30;;;;;;5045860;28;20478;-68
2023/04/03 07:11:04;;;;;;;1.95;1.10;;;6.30;66.10;;;;;;5024392;28;20131;-69
2023/04/03 07:13:30;;;;;;;0.30;0.30;;;6.30;66.00;;;;;;5023095;28;20041;-68
2023/04/03 07:15:56;;;;;;;1.08;0.47;;;6.30;65.70;;;;;;5028511;28;20032;-69
2023/04/03 07:18:23;;;;;;;1.58;1.05;;;6.30;65.70;;;;;;5021080;28;20029;-69
2023/04/03 07:20:48;;;;;;;4.53;0.95;;;6.40;65.60;;;;;;5024044;28;20032;-68
2023/04/03 07:23:14;;;;;;;0.50;0.40;;;6.40;65.30;;;;;;5047766;28;20037;-68
2023/04/03 07:25:48;;;;;;;1.35;0.63;;;6.40;65.20;;;;;;5029432;28;20362;-69
2023/04/03 07:28:15;;;;;;;0.70;0.55;;;6.50;65.00;;;;;;5043376;28;20024;-68
2023/04/03 07:30:44;;;;;;;1.65;0.77;;;6.50;64.90;;;;;;5038392;28;20388;-67
2023/04/03 07:33:11;;;;;;;1.60;0.77;;;6.50;64.70;;;;;;5041351;28;20017;-71
2023/04/03 07:35:37;;;;;;;0.73;0.30;;;6.60;64.60;;;;;;5022091;28;20949;-71
2023/04/03 07:38:03;;;;;;;0.80;0.30;;;6.60;64.20;;;;;;5024668;28;20043;-72
2023/04/03 07:40:28;;;;;;;0.40;0.40;;;6.60;64.00;;;;;;5038820;28;20080;-70
2023/04/03 07:42:56;;;;;;;0.40;0.40;;;6.70;64.30;;;;;;5043506;28;20111;-69
2023/04/03 07:45:22;;;;;;;0.73;0.70;;;6.70;63.60;;;;;;5016765;28;20024;-73
2023/04/03 07:47:48;;;;;;;0.60;0.50;;;6.80;63.40;;;;;;5023083;28;20568;-69
2023/04/03 07:50:14;;;;;;;3.45;0.77;;;6.80;63.10;;;;;;5007558;28;20115;-71
2023/04/03 07:52:40;;;;;;;1.27;0.63;;;6.90;62.90;;;;;;5046135;28;20032;-70
2023/04/03 07:55:07;;;;;;;0.57;0.50;;;7.00;62.70;;;;;;5046542;28;20021;-72
2023/04/03 07:57:32;;;;;;;2.08;0.50;;;7.10;62.20;;;;;;5026190;28;20126;-70
2023/04/03 07:59:58;;;;;;;0.63;0.52;;;7.10;62.00;;;;;;5046014;28;20071;-68
2023/04/03 08:02:24;;;;;;;4.55;0.63;;;7.20;62.00;;;;;;5010176;28;20041;-68
2023/04/03 08:04:50;;;;;;;0.55;0.55;;;7.30;61.70;;;;;;5042386;28;20035;-71
2023/04/03 08:07:15;;;;;;;4.22;0.70;;;7.40;61.40;;;;;;5034061;28;20040;-68
2023/04/03 08:09:41;;;;;;;0.57;0.30;;;7.40;61.20;;;;;;5035661;28;20387;-72
2023/04/03 08:12:07;;;;;;;1.48;0.95;;;7.50;60.90;;;;;;5001632;28;20539;-72
2023/04/03 08:14:36;;;;;;;0.35;0.30;;;7.60;60.80;;;;;;5002763;28;20034;-70
2023/04/03 08:17:04;;;;;;;0.90;0.43;;;7.70;61.10;;;;;;5031555;28;20591;-71
2023/04/03 08:19:30;;;;;;;0.40;0.40;;;7.80;60.20;;;;;;5025072;28;20033;-73
2023/04/03 08:21:58;;;;;;;0.30;0.30;;;7.80;59.50;;;;;;5017822;28;20041;-72
2023/04/03 08:24:24;;;;;;;0.55;0.40;;;7.90;59.70;;;;;;5035990;28;20069;-69
2023/04/03 08:26:50;;;;;;;0.60;0.40;;;7.90;59.00;;;;;;5022845;28;20517;-70
2023/04/03 08:29:15;;;;;;;2.63;0.52;;;8.00;58.80;;;;;;5041610;28;20063;-68
2023/04/03 08:31:41;;;;;;;0.50;0.32;;;8.10;58.80;;;;;;5044346;28;20024;-69
2023/04/03 08:34:07;;;;;;;0.50;0.47;;;8.20;57.50;;;;;;5016917;28;20033;-71
2023/04/03 08:36:32;;;;;;;0.40;0.40;;;8.20;56.90;;;;;;5029565;28;20244;-69
2023/04/03 08:38:58;;;;;;;1.48;0.85;;;8.20;56.30;;;;;;5035493;28;20051;-69
2023/04/03 08:41:34;;;;;;;0.40;0.40;;;8.20;55.90;;;;;;5039364;28;20819;-72
2023/04/03 08:44:16;;;;;;;0.43;0.40;;;8.30;55.70;;;;;;5038661;28;20543;-72
2023/04/03 08:47:02;;;;;;;1.10;0.50;;;8.40;55.30;;;;;;5042524;28;20045;-72
2023/04/03 08:49:35;;;;;;;0.55;0.40;;;8.50;54.70;;;;;;5038116;28;20067;-71
2023/04/03 08:52:05;;;;;;;0.20;0.20;;;8.60;54.60;;;;;;5014276;28;20018;-72
2023/04/03 08:54:35;;;;;;;0.47;0.22;;;8.70;54.20;;;;;;5044097;28;20456;-72
2023/04/03 08:57:05;;;;;;;0.30;0.30;;;8.90;53.90;;;;;;5046561;28;20507;-71
2023/04/03 08:59:35;;;;;;;0.20;0.20;;;9.00;53.20;;;;;;5043918;28;20079;-70
2023/04/03 09:02:06;;;;;;;0.20;0.20;;;9.20;53.40;;;;;;5023476;28;20079;-71
2023/04/03 09:04:33;;;;;;;0.28;0.28;;;9.30;52.80;;;;;;5037510;28;20532;-69
2023/04/03 09:07:12;;;;;;;0.47;0.40;;;9.40;52.00;;;;;;5039224;28;20565;-71
2023/04/03 09:09:49;;;;;;;0.30;0.30;;;9.50;51.30;;;;;;5034841;28;20554;-71
2023/04/03 09:12:26;;;;;;;0.20;0.20;;;9.50;50.40;;;;;;5030596;28;20126;-70
2023/04/03 09:15:21;;;;;;;0.52;0.40;;;9.60;49.20;;;;;;5022187;28;20474;-70
2023/04/03 09:17:58;;;;;;;0.95;0.30;;;9.70;48.80;;;;;;5035771;28;20156;-70
2023/04/03 09:20:45;;;;;;;0.20;0.20;;;9.70;47.70;;;;;;5041457;28;20025;-71
2023/04/03 09:23:44;;;;;;;0.95;0.15;;;9.70;48.10;;;;;;5043975;28;20025;-70
2023/04/03 09:26:34;;;;;;;0.20;0.20;;;9.90;47.60;;;;;;5033433;28;20077;-70
2023/04/03 09:29:06;;;;;;;0.20;0.20;;;10.00;46.20;;;;;;5016047;28;20037;-71
2023/04/03 09:31:42;;;;;;;0.30;0.30;;;10.10;45.30;;;;;;5044822;28;20029;-71
2023/04/03 09:34:22;;;;;;;1.55;0.30;;;10.10;44.20;;;;;;5032272;28;20025;-71
2023/04/03 09:36:51;;;;;;;0.17;0.15;;;10.10;44.10;;;;;;5041331;28;20424;-70
2023/04/03 09:39:22;;;;;;;0.30;0.30;;;10.10;43.90;;;;;;5045479;28;20076;-71
2023/04/03 09:42:22;;;;;;;0.20;0.20;;;10.20;44.00;;;;;;5045778;28;20032;-70
2023/04/03 09:45:02;;;;;;;1.23;0.30;;;10.30;43.10;;;;;;5049434;28;20100;-70
2023/04/03 09:47:33;;;;;;;0.75;0.40;;;10.40;42.80;;;;;;5045714;28;20519;-70
2023/04/03 09:50:29;;;;;;;0.47;0.10;;;10.50;42.40;;;;;;5050741;28;20021;-69
2023/04/03 09:52:54;;;;;;;0.15;0.10;;;10.60;42.40;;;;;;5034977;28;20041;-70
2023/04/03 09:55:27;;;;;;;0.52;0.30;;;10.70;41.80;;;;;;5019867;28;20132;-71
2023/04/03 09:57:53;;;;;;;0.35;0.10;;;10.80;42.10;;;;;;5023615;28;20116;-69
2023/04/03 10:00:23;;;;;;;1.83;0.35;;;10.80;42.10;;;;;;5022615;28;20051;-70
2023/04/03 10:02:53;;;;;;;0.10;0.10;;;10.90;41.70;;;;;;5039894;28;20033;-71
2023/04/03 10:05:35;;;;;;;0.45;0.25;;;11.00;41.50;;;;;;5050648;28;20021;-71
2023/04/03 10:08:31;;;;;;;0.20;0.20;;;11.10;41.70;;;;;;5044589;28;20040;-70
2023/04/03 10:11:16;;;;;;;0.63;0.20;;;11.10;41.60;;;;;;5045867;28;20429;-71
2023/04/03 10:14:00;;;;;;;0.50;0.30;;;11.10;41.20;;;;;;5046847;28;20028;-70
2023/04/03 10:16:37;;;;;;;0.17;0.17;;;11.10;41.30;;;;;;5041306;28;20083;-69
2023/04/03 10:19:15;;;;;;;0.65;0.30;;;11.20;41.60;;;;;;5037929;28;20021;-68
2023/04/03 10:22:21;;;;;;;0.32;0.20;;;11.30;41.40;;;;;;5040970;28;20032;-70
2023/04/03 10:25:02;;;;;;;0.68;0.35;;;11.50;40.60;;;;;;5007318;28;20040;-68
2023/04/03 10:27:46;;;;;;;0.32;0.32;;;11.50;41.00;;;;;;5044057;28;20067;-69
2023/04/03 10:30:35;;;;;;;0.30;0.30;;;11.60;40.80;;;;;;5025638;28;20468;-71
2023/04/03 10:33:11;;;;;;;0.20;0.20;;;11.80;40.50;;;;;;5042352;28;20082;-70
2023/04/03 10:35:42;;;;;;;0.40;0.40;;;11.80;40.30;;;;;;5039748;28;20129;-69
2023/04/03 10:38:26;;;;;;;0.47;0.28;;;11.90;40.50;;;;;;5019376;28;20025;-69
2023/04/03 10:41:15;;;;;;;0.75;0.43;;;12.00;40.70;;;;;;5040215;28;20028;-69
2023/04/03 10:43:47;;;;;;;0.22;0.22;;;12.00;40.40;;;;;;5036005;28;20084;-71
2023/04/03 10:46:35;;;;;;;1.27;0.38;;;12.20;40.70;;;;;;5036552;28;20034;-70
2023/04/03 10:49:46;;;;;;;0.22;0.22;;;12.20;40.40;;;;;;5023043;28;20436;-69
2023/04/03 10:52:54;;;;;;;1.60;0.50;;;12.30;40.70;;;;;;5037622;28;20373;-71
2023/04/03 10:55:26;;;;;;;1.55;0.40;;;12.50;40.40;;;;;;5042671;28;20024;-70
2023/04/03 10:57:56;;;;;;;0.30;0.30;;;12.70;40.70;;;;;;5041170;28;20018;-70
2023/04/03 11:00:45;;;;;;;0.13;0.13;;;12.90;40.60;;;;;;5046728;28;20052;-70
2023/04/03 11:03:26;;;;;;;0.20;0.15;;;13.10;40.10;;;;;;5041040;28;20041;-70
2023/04/03 11:05:55;;;;;;;0.22;0.17;;;13.10;38.70;;;;;;5043615;28;20075;-70
2023/04/03 11:08:27;;;;;;;0.45;0.30;;;13.10;38.50;;;;;;5025459;28;20885;-70
2023/04/03 11:10:57;;;;;;;0.30;0.30;;;13.20;38.40;;;;;;5042850;28;20400;-69
2023/04/03 11:13:46;;;;;;;0.30;0.25;;;13.10;36.60;;;;;;5022531;28;20029;-70
2023/04/03 11:16:23;;;;;;;0.45;0.45;;;13.10;37.20;;;;;;5033340;28;20037;-69
2023/04/03 11:18:56;;;;;;;0.30;0.30;;;13.10;37.50;;;;;;5041001;28;20025;-69
2023/04/03 11:21:27;;;;;;;;;;;13.10;37.20;;;;;;5047083;28;20555;-71
2023/04/03 11:23:56;;;;;;;0.20;0.20;;;13.20;37.00;;;;;;5046801;28;19913;-71
2023/04/03 11:26:25;;;;;;;2.33;0.40;;;13.20;37.00;;;;;;5048388;28;20021;-70
2023/04/03 11:29:03;;;;;;;0.25;0.20;;;13.30;37.40;;;;;;5044207;28;20500;-70
2023/04/03 11:31:57;;;;;;;1.00;0.57;;;13.50;36.40;;;;;;5027754;28;20412;-70
2023/04/03 11:34:45;;;;;;;0.30;0.20;;;13.60;36.60;;;;;;5020870;28;20086;-70
2023/04/03 11:37:35;;;;;;;0.20;0.20;;;13.70;36.20;;;;;;5030805;28;20380;-69
2023/04/03 11:40:09;;;;;;;1.40;0.60;;;13.70;36.00;;;;;;5041475;28;20054;-70
2023/04/03 11:42:39;;;;;;;0.10;0.10;;;13.80;36.30;;;;;;5035775;28;20088;-70
2023/04/03 11:45:32;;;;;;;0.63;0.50;;;13.90;36.00;;;;;;5036054;28;20025;-69
2023/04/03 11:48:31;;;;;;;0.40;0.30;;;14.00;36.00;;;;;;5023242;28;20831;-72
2023/04/03 11:50:57;;;;;;;0.43;0.20;;;14.10;36.10;;;;;;5039240;28;20033;-70
2023/04/03 11:53:36;;;;;;;0.35;0.20;;;14.10;35.80;;;;;;5019227;28;20048;-69
2023/04/03 11:56:28;;;;;;;2.15;0.22;;;14.10;35.80;;;;;;5033267;28;20026;-71
2023/04/03 11:59:18;;;;;;;0.80;0.40;;;14.30;36.20;;;;;;5023775;28;20017;-69
2023/04/03 12:01:43;;;;;;;0.20;0.20;;;14.40;35.90;;;;;;5019741;28;20024;-71
2023/04/03 12:04:14;;;;;;;0.40;0.40;;;14.50;36.10;;;;;;5036274;28;20030;-70
2023/04/03 12:07:01;;;;;;;0.17;0.17;;;14.70;36.20;;;;;;5042457;28;20037;-69
2023/04/03 12:09:55;;;;;;;1.25;0.40;;;15.00;36.10;;;;;;5043127;28;20063;-70
2023/04/03 12:12:24;;;;;;;0.52;0.40;;;15.10;36.10;;;;;;5039271;28;20052;-70
2023/04/03 12:14:50;;;;;;;0.43;0.32;;;15.30;35.70;;;;;;5036491;28;20036;-69
2023/04/03 12:17:25;;;;;;;0.65;0.30;;;15.20;35.10;;;;;;5042921;28;20036;-70
2023/04/03 12:19:51;;;;;;;0.30;0.30;;;15.20;35.50;;;;;;5049356;28;20025;-68
2023/04/03 12:22:20;;;;;;;0.65;0.38;;;15.30;35.80;;;;;;5013417;28;20028;-69
2023/04/03 12:24:50;;;;;;;0.30;0.30;;;15.40;35.80;;;;;;5037092;28;20159;-70
2023/04/03 12:27:53;;;;;;;0.30;0.30;;;15.50;35.60;;;;;;5038741;28;20029;-69
2023/04/03 12:30:30;;;;;;;0.60;0.45;;;15.50;35.30;;;;;;5015124;28;20496;-71
2023/04/03 12:33:25;;;;;;;0.65;0.30;;;15.60;35.00;;;;;;5037152;28;20047;-69
2023/04/03 12:36:15;;;;;;;0.70;0.20;;;15.70;34.90;;;;;;4999750;28;20444;-70
2023/04/03 12:38:56;;;;;;;0.45;0.30;;;15.70;34.40;;;;;;5038325;28;20162;-70
2023/04/03 12:41:38;;;;;;;1.85;0.50;;;15.70;34.60;;;;;;5041453;28;20036;-67
2023/04/03 12:44:22;;;;;;;0.30;0.30;;;15.70;34.80;;;;;;5036191;28;20036;-68
2023/04/03 12:46:50;;;;;;;0.10;0.10;;;15.80;35.00;;;;;;5044062;28;20033;-66
2023/04/03 12:49:39;;;;;;;0.40;0.40;;;15.70;34.70;;;;;;5027008;28;20547;-69
2023/04/03 12:52:25;;;;;;;0.52;0.20;;;15.70;35.10;;;;;;5029194;28;20029;-72
2023/04/03 12:54:51;;;;;;;0.47;0.30;;;15.80;34.90;;;;;;5031870;28;20033;-72
2023/04/03 12:57:20;;;;;;;1.02;0.57;;;15.80;34.90;;;;;;5040516;28;20032;-64
2023/04/03 12:59:46;;;;;;;0.40;0.40;;;15.90;34.90;;;;;;5040583;28;20052;-72
2023/04/03 13:02:28;;;;;;;0.80;0.70;;;16.00;34.80;;;;;;5021237;28;20150;-66
2023/04/03 13:04:57;;;;;;;1.95;0.55;;;16.00;34.80;;;;;;5039965;28;20090;-66
2023/04/03 13:07:31;;;;;;;1.20;0.63;;;16.20;35.00;;;;;;5046019;28;20688;-67
2023/04/03 13:10:17;;;;;;;0.35;0.30;;;16.30;34.70;;;;;;5038399;28;20028;-66
2023/04/03 13:12:54;;;;;;;0.93;0.40;;;16.50;34.70;;;;;;5045913;28;20056;-65
2023/04/03 13:15:29;;;;;;;0.93;0.30;;;16.50;34.10;;;;;;5025198;28;20032;-66